createdAt,value
2022-09-28T00:02:13.044Z,6.07
2022-09-28T00:04:39.701Z,5.63
2022-09-28T00:07:06.343Z,3.95
2022-09-28T00:09:32.935Z,5.30
2022-09-28T00:11:59.855Z,4.47
2022-09-28T00:14:26.550Z,5.78
2022-09-28T00:16:53.222Z,6.88
2022-09-28T00:19:19.823Z,7.03
2022-09-28T00:21:46.537Z,8.75
2022-09-28T00:24:19.049Z,4.60
2022-09-28T00:26:54.109Z,4.28
2022-09-28T00:29:24.778Z,7.05
2022-09-28T00:31:53.570Z,6.82
2022-09-28T00:34:20.759Z,4.80
2022-09-28T00:36:48.218Z,4.30
2022-09-28T00:39:15.884Z,5.22
2022-09-28T00:41:43.345Z,5.43
2022-09-28T00:44:31.646Z,4.50
2022-09-28T00:47:00.616Z,4.28
2022-09-28T00:49:40.405Z,4.38
2022-09-28T00:52:08.521Z,5.78
2022-09-28T00:54:35.886Z,4.40
2022-09-28T00:57:03.997Z,3.85
2022-09-28T00:59:32.798Z,4.28
2022-09-28T01:01:59.967Z,5.60
2022-09-28T01:04:29.849Z,4.75
2022-09-28T01:06:58.844Z,4.32
2022-09-28T01:09:27.270Z,3.92
2022-09-28T01:11:55.153Z,4.45
2022-09-28T01:14:25.540Z,3.88
2022-09-28T01:19:59.172Z,4.95
2022-09-28T01:22:35.022Z,4.35
2022-09-28T01:25:25.010Z,5.93
2022-09-28T01:27:57.388Z,5.47
2022-09-28T01:30:24.259Z,4.00
2022-09-28T01:32:58.356Z,3.60
2022-09-28T01:35:31.076Z,3.65
2022-09-28T01:38:21.576Z,4.25
2022-09-28T01:43:25.837Z,3.72
2022-09-28T01:46:01.059Z,4.78
2022-09-28T01:48:40.095Z,3.47
2022-09-28T01:51:12.611Z,4.70
2022-09-28T01:53:53.157Z,4.50
2022-09-28T01:56:35.116Z,4.15
2022-09-28T01:59:25.649Z,4.10
2022-09-28T02:04:40.520Z,5.07
2022-09-28T02:07:31.549Z,4.90
2022-09-28T02:10:05.476Z,4.18
2022-09-28T02:12:40.315Z,4.35
2022-09-28T02:15:19.938Z,4.97
2022-09-28T02:17:46.946Z,4.87
2022-09-28T02:20:14.909Z,5.40
2022-09-28T02:22:49.904Z,7.13
2022-09-28T02:25:36.279Z,4.63
2022-09-28T02:28:06.021Z,5.32
2022-09-28T02:30:36.548Z,6.53
2022-09-28T02:33:12.289Z,6.35
2022-09-28T02:35:41.660Z,5.18
2022-09-28T02:38:10.144Z,5.15
2022-09-28T02:40:38.087Z,6.60
2022-09-28T02:43:33.433Z,5.68
2022-09-28T02:46:22.564Z,5.68
2022-09-28T02:49:20.186Z,5.13
2022-09-28T02:52:13.849Z,7.03
2022-09-28T02:55:08.302Z,5.85
2022-09-28T02:58:01.975Z,5.60
2022-09-28T03:00:30.923Z,6.45
2022-09-28T03:03:06.804Z,4.45
2022-09-28T03:05:45.598Z,5.03
2022-09-28T03:08:26.667Z,7.35
2022-09-28T03:11:03.964Z,5.97
2022-09-28T03:13:31.643Z,5.70
2022-09-28T03:16:13.807Z,5.07
2022-09-28T03:18:41.126Z,4.50
2022-09-28T03:21:09.310Z,8.65
2022-09-28T03:23:36.005Z,4.57
2022-09-28T03:26:02.641Z,4.30
2022-09-28T03:28:29.602Z,4.20
2022-09-28T03:30:56.707Z,8.90
2022-09-28T03:33:23.441Z,6.07
2022-09-28T03:35:50.611Z,5.88
2022-09-28T03:38:20.954Z,7.00
2022-09-28T03:40:59.004Z,4.82
2022-09-28T03:43:27.160Z,5.45
2022-09-28T03:45:54.623Z,4.47
2022-09-28T03:48:26.675Z,7.95
2022-09-28T03:50:57.681Z,7.45
2022-09-28T03:53:25.140Z,4.72
2022-09-28T03:55:53.298Z,7.03
2022-09-28T03:58:23.328Z,6.72
2022-09-28T04:00:50.331Z,5.53
2022-09-28T04:03:17.041Z,7.50
2022-09-28T04:05:51.850Z,6.38
2022-09-28T04:08:19.134Z,5.30
2022-09-28T04:10:46.051Z,5.18
2022-09-28T04:13:12.974Z,5.35
2022-09-28T04:15:39.666Z,5.82
2022-09-28T04:18:11.187Z,5.40
2022-09-28T04:20:40.886Z,4.75
2022-09-28T04:23:07.581Z,5.47
2022-09-28T04:25:34.203Z,7.05
2022-09-28T04:28:19.431Z,4.90
2022-09-28T04:30:47.691Z,5.28
2022-09-28T04:33:14.380Z,8.43
2022-09-28T04:35:41.136Z,4.25
2022-09-28T04:38:07.754Z,4.80
2022-09-28T04:40:34.417Z,5.20
2022-09-28T04:43:01.078Z,5.10
2022-09-28T04:45:28.514Z,11.55
2022-09-28T04:47:55.209Z,4.32
2022-09-28T04:50:21.953Z,6.00
2022-09-28T04:52:48.686Z,7.20
2022-09-28T04:55:16.874Z,6.32
2022-09-28T04:57:43.491Z,4.57
2022-09-28T05:00:10.943Z,6.65
2022-09-28T05:02:37.661Z,7.20
2022-09-28T05:05:04.633Z,3.88
2022-09-28T05:07:31.333Z,4.20
2022-09-28T05:09:58.033Z,3.88
2022-09-28T05:12:24.769Z,4.30
2022-09-28T05:14:51.399Z,4.97
2022-09-28T05:17:18.035Z,6.65
2022-09-28T05:19:44.649Z,8.07
2022-09-28T05:22:14.742Z,4.35
2022-09-28T05:24:41.649Z,8.13
2022-09-28T05:27:08.410Z,4.30
2022-09-28T05:29:35.154Z,5.05
2022-09-28T05:32:02.186Z,4.15
2022-09-28T05:34:29.285Z,4.10
2022-09-28T05:36:55.970Z,4.28
2022-09-28T05:39:22.610Z,7.57
2022-09-28T05:41:49.455Z,6.95
2022-09-28T05:44:16.205Z,5.75
2022-09-28T05:46:42.894Z,6.57
2022-09-28T05:49:09.572Z,4.22
2022-09-28T05:51:36.250Z,4.70
2022-09-28T05:54:06.035Z,7.55
2022-09-28T05:56:33.390Z,4.13
2022-09-28T05:59:00.038Z,4.22
2022-09-28T06:01:26.861Z,6.93
2022-09-28T06:03:53.541Z,6.45
2022-09-28T06:06:20.274Z,6.47
2022-09-28T06:08:48.461Z,4.60
2022-09-28T06:11:15.169Z,4.90
2022-09-28T06:13:41.824Z,4.97
2022-09-28T06:16:09.170Z,8.52
2022-09-28T06:18:35.883Z,5.28
2022-09-28T06:21:02.796Z,5.78
2022-09-28T06:23:29.458Z,7.25
2022-09-28T06:25:56.104Z,8.05
2022-09-28T06:28:22.784Z,9.35
2022-09-28T06:30:49.581Z,6.75
2022-09-28T06:33:16.419Z,5.75
2022-09-28T06:35:43.092Z,7.35
2022-09-28T06:38:10.312Z,6.57
2022-09-28T06:40:37.761Z,5.20
2022-09-28T06:43:10.150Z,5.78
2022-09-28T06:45:38.034Z,5.82
2022-09-28T06:48:05.545Z,4.85
2022-09-28T06:50:37.336Z,5.47
2022-09-28T06:53:06.771Z,5.85
2022-09-28T06:55:33.675Z,4.30
2022-09-28T06:58:02.819Z,5.35
2022-09-28T07:00:33.837Z,8.00
2022-09-28T07:03:02.687Z,5.15
2022-09-28T07:05:29.974Z,4.90
2022-09-28T07:07:57.279Z,8.45
2022-09-28T07:10:27.727Z,7.40
2022-09-28T07:15:22.156Z,5.32
2022-09-28T07:17:59.983Z,4.47
2022-09-28T07:20:29.954Z,5.90
2022-09-28T07:23:09.664Z,4.72
2022-09-28T07:25:45.607Z,5.90
2022-09-28T07:28:12.527Z,7.40
2022-09-28T07:30:39.832Z,5.47
2022-09-28T07:33:09.387Z,5.72
2022-09-28T07:35:36.124Z,6.35
2022-09-28T07:38:05.477Z,5.88
2022-09-28T07:40:52.550Z,4.93
2022-09-28T07:43:23.094Z,4.57
2022-09-28T07:45:54.852Z,6.78
2022-09-28T07:48:22.550Z,5.22
2022-09-28T07:50:53.820Z,11.10
2022-09-28T07:53:22.895Z,6.20
2022-09-28T07:55:52.781Z,8.45
2022-09-28T07:58:20.740Z,6.20
2022-09-28T08:00:49.084Z,6.03
2022-09-28T08:03:17.957Z,5.68
2022-09-28T08:05:47.420Z,6.15
2022-09-28T08:08:15.054Z,8.27
2022-09-28T08:10:47.326Z,4.80
2022-09-28T08:13:16.278Z,8.93
2022-09-28T08:15:43.035Z,5.40
2022-09-28T08:18:10.054Z,4.80
2022-09-28T08:20:55.743Z,4.95
2022-09-28T08:23:23.486Z,9.82
2022-09-28T08:25:53.860Z,5.88
2022-09-28T08:30:49.611Z,4.25
2022-09-28T08:33:17.975Z,4.60
2022-09-28T08:35:45.934Z,4.47
2022-09-28T08:38:13.578Z,2.78
2022-09-28T08:41:27.006Z,5.82
2022-09-28T08:44:09.530Z,3.42
2022-09-28T08:46:42.443Z,3.83
2022-09-28T08:49:25.410Z,3.42
2022-09-28T08:52:16.316Z,3.38
2022-09-28T08:54:57.820Z,2.85
2022-09-28T08:57:45.760Z,1.80
2022-09-28T09:00:21.222Z,2.05
2022-09-28T09:02:48.724Z,1.33
2022-09-28T09:05:19.928Z,4.00
2022-09-28T09:08:08.064Z,1.80
2022-09-28T09:11:02.406Z,2.25
2022-09-28T09:14:00.212Z,1.48
2022-09-28T09:16:39.067Z,2.67
2022-09-28T09:19:08.380Z,2.90
2022-09-28T09:21:43.392Z,2.97
2022-09-28T09:24:34.260Z,2.63
2022-09-28T09:27:27.271Z,1.77
2022-09-28T09:30:09.368Z,1.50
2022-09-28T09:33:00.022Z,1.50
2022-09-28T09:35:43.049Z,2.83
2022-09-28T09:38:41.305Z,1.45
2022-09-28T09:41:40.876Z,2.25
2022-09-28T09:44:19.351Z,3.43
2022-09-28T09:46:55.989Z,2.78
2022-09-28T09:49:29.053Z,1.85
2022-09-28T09:52:11.263Z,2.78
2022-09-28T09:55:10.450Z,3.28
2022-09-28T09:57:50.923Z,1.20
2022-09-28T10:02:48.130Z,3.30
2022-09-28T10:08:03.202Z,3.00
2022-09-28T10:10:37.872Z,0.90
2022-09-28T10:13:05.097Z,1.20
2022-09-28T10:15:33.491Z,2.25
2022-09-28T10:18:06.785Z,1.15
2022-09-28T10:20:37.269Z,2.28
2022-09-28T10:23:06.739Z,2.70
2022-09-28T10:25:37.827Z,0.70
2022-09-28T10:28:06.904Z,3.28
2022-09-28T10:30:44.428Z,1.15
2022-09-28T10:33:33.395Z,3.10
2022-09-28T10:36:01.828Z,2.63
2022-09-28T10:38:30.223Z,1.27
2022-09-28T10:41:10.395Z,1.90
2022-09-28T10:44:05.991Z,3.78
2022-09-28T10:46:38.087Z,0.88
2022-09-28T10:49:12.469Z,1.83
2022-09-28T10:52:08.636Z,1.48
2022-09-28T10:54:36.990Z,0.70
2022-09-28T10:57:03.700Z,0.90
2022-09-28T10:59:30.302Z,0.80
2022-09-28T11:02:09.518Z,2.40
2022-09-28T11:04:42.103Z,0.80
2022-09-28T11:07:18.661Z,1.05
2022-09-28T11:09:49.530Z,0.77
2022-09-28T11:12:20.394Z,2.60
2022-09-28T11:14:52.730Z,1.33
2022-09-28T11:17:29.095Z,2.40
2022-09-28T11:20:26.996Z,1.45
2022-09-28T11:22:57.222Z,1.10
2022-09-28T11:25:26.871Z,1.42
2022-09-28T11:27:53.498Z,1.42
2022-09-28T11:30:26.316Z,1.60
2022-09-28T11:32:56.469Z,2.33
2022-09-28T11:35:42.308Z,1.13
2022-09-28T11:38:23.986Z,1.35
2022-09-28T11:41:05.303Z,2.80
2022-09-28T11:43:50.479Z,3.65
2022-09-28T11:46:50.400Z,1.88
2022-09-28T11:49:20.072Z,1.70
2022-09-28T11:51:49.342Z,1.38
2022-09-28T11:54:21.769Z,1.10
2022-09-28T11:56:50.985Z,0.70
2022-09-28T11:59:24.043Z,1.65
2022-09-28T12:01:56.564Z,1.02
2022-09-28T12:04:31.933Z,1.00
2022-09-28T12:07:02.958Z,1.75
2022-09-28T12:09:48.485Z,2.05
2022-09-28T12:12:28.279Z,3.30
2022-09-28T12:15:00.460Z,6.90
2022-09-28T12:17:35.650Z,2.72
2022-09-28T12:20:24.362Z,1.92
2022-09-28T12:22:59.582Z,2.80
2022-09-28T12:25:29.802Z,4.97
2022-09-28T12:28:02.437Z,1.25
2022-09-28T12:30:35.049Z,2.58
2022-09-28T12:33:17.559Z,1.65
2022-09-28T12:35:52.171Z,3.40
2022-09-28T12:38:24.809Z,1.20
2022-09-28T12:40:59.083Z,2.50
2022-09-28T12:44:03.913Z,1.75
2022-09-28T12:47:06.029Z,4.20
2022-09-28T12:53:02.931Z,2.13
2022-09-28T12:55:33.729Z,3.00
2022-09-28T13:00:53.529Z,2.85
2022-09-28T13:03:45.691Z,3.95
2022-09-28T13:06:18.064Z,5.72
2022-09-28T13:08:55.227Z,3.80
2022-09-28T13:11:36.048Z,1.33
2022-09-28T13:14:43.271Z,33.83
2022-09-28T13:17:26.373Z,4.68
2022-09-28T13:20:16.380Z,2.53
2022-09-28T13:23:07.928Z,6.00
2022-09-28T13:25:36.332Z,14.02
2022-09-28T13:28:05.591Z,5.35
2022-09-28T13:30:36.233Z,4.22
2022-09-28T13:33:05.812Z,4.18
2022-09-28T13:35:33.410Z,4.43
2022-09-28T13:38:18.247Z,31.60
2022-09-28T13:41:05.228Z,38.55
2022-09-28T13:43:41.375Z,20.60
2022-09-28T13:46:34.409Z,6.18
2022-09-28T13:49:18.366Z,8.27
2022-09-28T13:51:51.652Z,7.47
2022-09-28T13:54:41.346Z,7.43
2022-09-28T13:57:11.246Z,6.15
2022-09-28T14:00:13.871Z,7.97
2022-09-28T14:03:23.976Z,5.15
2022-09-28T14:06:05.660Z,4.25
2022-09-28T14:08:39.356Z,4.03
2022-09-28T14:11:34.928Z,3.40
2022-09-28T14:14:14.087Z,3.15
2022-09-28T14:16:42.199Z,5.57
2022-09-28T14:19:12.714Z,4.80
2022-09-28T14:21:53.537Z,8.45
2022-09-28T14:24:35.257Z,4.70
2022-09-28T14:27:08.173Z,2.47
2022-09-28T14:29:37.731Z,1.88
2022-09-28T14:32:09.948Z,3.07
2022-09-28T14:34:45.687Z,3.10
2022-09-28T14:37:50.244Z,4.28
2022-09-28T14:40:37.641Z,2.83
2022-09-28T14:43:41.869Z,5.28
2022-09-28T14:46:11.341Z,2.10
2022-09-28T14:48:58.407Z,2.90
2022-09-28T14:51:26.138Z,2.33
2022-09-28T14:53:55.263Z,2.30
2022-09-28T14:56:22.190Z,2.70
2022-09-28T14:58:54.869Z,2.10
2022-09-28T15:01:24.692Z,1.77
2022-09-28T15:04:04.613Z,2.50
2022-09-28T15:06:46.503Z,1.75
2022-09-28T15:09:33.039Z,2.40
2022-09-28T15:12:13.088Z,2.92
2022-09-28T15:14:53.059Z,4.38
2022-09-28T15:17:27.222Z,2.05
2022-09-28T15:20:24.593Z,4.50
2022-09-28T15:22:57.247Z,2.40
2022-09-28T15:25:29.751Z,4.82
2022-09-28T15:28:02.364Z,2.35
2022-09-28T15:30:36.382Z,2.00
2022-09-28T15:33:23.239Z,1.70
2022-09-28T15:36:06.710Z,5.50
2022-09-28T15:38:34.931Z,4.53
2022-09-28T15:41:06.723Z,3.65
2022-09-28T15:43:34.663Z,2.35
2022-09-28T15:46:20.548Z,2.03
2022-09-28T15:48:55.741Z,2.00
2022-09-28T15:51:24.470Z,2.15
2022-09-28T15:54:09.566Z,1.48
2022-09-28T15:56:55.285Z,1.65
2022-09-28T15:59:40.564Z,0.70
2022-09-28T16:02:22.614Z,1.05
2022-09-28T16:05:00.848Z,1.45
2022-09-28T16:07:41.518Z,1.80
2022-09-28T16:10:14.374Z,3.03
2022-09-28T16:13:08.214Z,2.50
2022-09-28T16:15:37.684Z,2.35
2022-09-28T16:18:11.404Z,3.87
2022-09-28T16:20:40.356Z,3.10
2022-09-28T16:23:26.805Z,1.13
2022-09-28T16:26:03.018Z,2.13
2022-09-28T16:28:38.415Z,4.68
2022-09-28T16:31:22.113Z,3.58
2022-09-28T16:33:54.992Z,3.22
2022-09-28T16:36:22.593Z,3.53
2022-09-28T16:38:49.723Z,2.80
2022-09-28T16:41:20.574Z,3.92
2022-09-28T16:43:47.955Z,2.72
2022-09-28T16:46:17.860Z,5.50
2022-09-28T16:48:49.249Z,3.75
2022-09-28T16:51:21.646Z,4.30
2022-09-28T16:54:07.406Z,3.55
2022-09-28T16:56:36.161Z,4.40
2022-09-28T16:59:03.197Z,4.40
2022-09-28T17:01:31.178Z,5.20
2022-09-28T17:03:58.150Z,3.65
2022-09-28T17:06:25.490Z,3.75
2022-09-28T17:08:54.240Z,3.67
2022-09-28T17:11:24.743Z,3.60
2022-09-28T17:13:52.270Z,6.75
2022-09-28T17:16:32.609Z,4.80
2022-09-28T17:19:20.959Z,3.80
2022-09-28T17:21:48.205Z,4.95
2022-09-28T17:24:14.860Z,4.47
2022-09-28T17:26:44.299Z,3.63
2022-09-28T17:29:14.539Z,4.50
2022-09-28T17:34:10.788Z,3.50
2022-09-28T17:36:37.731Z,5.88
2022-09-28T17:39:06.258Z,5.35
2022-09-28T17:41:34.203Z,4.68
2022-09-28T17:44:01.762Z,3.78
2022-09-28T17:46:34.651Z,3.30
2022-09-28T17:49:04.274Z,3.40
2022-09-28T17:51:37.494Z,3.17
2022-09-28T17:54:06.801Z,4.63
2022-09-28T17:56:34.433Z,3.83
2022-09-28T17:59:04.763Z,4.95
2022-09-28T18:04:03.118Z,4.70
2022-09-28T18:06:29.901Z,4.50
2022-09-28T18:08:56.593Z,5.00
2022-09-28T18:11:23.578Z,5.38
2022-09-28T18:13:50.329Z,6.28
2022-09-28T18:16:17.624Z,5.22
2022-09-28T18:18:44.421Z,4.57
2022-09-28T18:21:11.180Z,4.95
2022-09-28T18:23:38.833Z,4.47
2022-09-28T18:26:15.206Z,4.90
2022-09-28T18:28:42.113Z,4.95
2022-09-28T18:31:13.569Z,5.97
2022-09-28T18:33:40.747Z,4.30
2022-09-28T18:36:07.935Z,4.68
2022-09-28T18:38:38.298Z,4.57
2022-09-28T18:43:41.655Z,5.25
2022-09-28T18:46:10.058Z,8.13
2022-09-28T18:48:37.872Z,9.73
2022-09-28T18:51:09.417Z,7.03
2022-09-28T18:53:36.710Z,9.88
2022-09-28T18:56:11.599Z,6.63
2022-09-28T18:58:39.521Z,8.88
2022-09-28T19:01:33.506Z,7.07
2022-09-28T19:04:05.866Z,8.35
2022-09-28T19:06:34.296Z,6.90
2022-09-28T19:09:01.399Z,10.65
2022-09-28T19:11:28.657Z,6.97
2022-09-28T19:13:56.114Z,9.27
2022-09-28T19:16:26.268Z,8.90
2022-09-28T19:18:53.530Z,9.25
2022-09-28T19:21:20.981Z,9.35
2022-09-28T19:23:49.737Z,7.38
2022-09-28T19:26:26.862Z,9.77
2022-09-28T19:28:55.021Z,8.00
2022-09-28T19:31:22.211Z,13.55
2022-09-28T19:33:49.910Z,10.00
2022-09-28T19:36:21.837Z,12.68
2022-09-28T19:38:48.490Z,12.43
2022-09-28T19:41:49.287Z,13.40
2022-09-28T19:44:24.261Z,15.35
2022-09-28T19:46:55.616Z,13.90
2022-09-28T19:49:23.887Z,10.70
2022-09-28T19:52:12.253Z,10.10
2022-09-28T19:54:41.119Z,8.65
2022-09-28T19:57:08.647Z,6.90
2022-09-28T19:59:36.715Z,5.97
2022-09-28T20:02:04.618Z,9.10
2022-09-28T20:04:31.301Z,6.80
2022-09-28T20:06:57.954Z,6.85
2022-09-28T20:09:24.662Z,8.07
2022-09-28T20:11:51.868Z,12.80
2022-09-28T20:14:18.849Z,10.32
2022-09-28T20:16:48.315Z,9.57
2022-09-28T20:19:15.575Z,10.73
2022-09-28T20:21:42.238Z,12.52
2022-09-28T20:24:11.997Z,15.88
2022-09-28T20:26:39.075Z,26.77
2022-09-28T20:29:07.374Z,23.92
2022-09-28T20:31:38.611Z,18.20
2022-09-28T20:34:05.876Z,14.63
2022-09-28T20:36:33.024Z,12.55
2022-09-28T20:39:03.866Z,10.88
2022-09-28T20:41:36.833Z,14.02
2022-09-28T20:44:06.398Z,14.25
2022-09-28T20:46:34.864Z,9.77
2022-09-28T20:49:01.846Z,9.75
2022-09-28T20:51:28.748Z,7.40
2022-09-28T20:53:57.018Z,11.95
2022-09-28T20:56:26.394Z,11.00
2022-09-28T20:58:54.013Z,10.23
2022-09-28T21:01:26.580Z,9.57
2022-09-28T21:03:55.170Z,7.82
2022-09-28T21:06:24.972Z,6.22
2022-09-28T21:08:52.021Z,7.82
2022-09-28T21:11:21.813Z,5.50
2022-09-28T21:13:52.474Z,6.95
2022-09-28T21:16:19.102Z,4.63
2022-09-28T21:18:46.798Z,7.43
2022-09-28T21:21:15.609Z,7.53
2022-09-28T21:23:45.078Z,8.25
2022-09-28T21:26:13.180Z,8.97
2022-09-28T21:28:40.270Z,6.20
2022-09-28T21:31:10.078Z,9.55
2022-09-28T21:33:37.253Z,18.08
2022-09-28T21:36:06.667Z,24.58
2022-09-28T21:38:34.746Z,13.82
2022-09-28T21:41:01.646Z,8.18
2022-09-28T21:43:29.897Z,8.70
2022-09-28T21:45:58.087Z,6.35
2022-09-28T21:48:26.909Z,8.52
2022-09-28T21:51:04.946Z,5.10
2022-09-28T21:53:33.722Z,5.55
2022-09-28T21:56:01.253Z,5.60
2022-09-28T21:58:30.202Z,6.53
2022-09-28T22:01:13.049Z,11.30
2022-09-28T22:03:40.600Z,6.95
2022-09-28T22:06:07.973Z,8.77
2022-09-28T22:08:36.303Z,9.18
2022-09-28T22:11:08.642Z,8.65
2022-09-28T22:13:43.933Z,9.30
2022-09-28T22:16:11.543Z,6.05
2022-09-28T22:18:38.392Z,6.20
2022-09-28T22:21:09.737Z,6.50
2022-09-28T22:23:37.936Z,5.72
2022-09-28T22:26:12.483Z,7.15
2022-09-28T22:28:44.437Z,5.57
2022-09-28T22:31:11.181Z,6.55
2022-09-28T22:33:37.892Z,5.63
2022-09-28T22:36:04.753Z,5.78
2022-09-28T22:38:32.001Z,5.65
2022-09-28T22:40:58.694Z,5.95
2022-09-28T22:43:26.915Z,7.05
2022-09-28T22:46:18.393Z,6.25
2022-09-28T22:48:53.265Z,7.00
2022-09-28T22:51:21.197Z,8.32
2022-09-28T22:53:48.340Z,8.15
2022-09-28T22:56:18.710Z,7.95
2022-09-28T22:58:46.226Z,16.33
2022-09-28T23:01:15.764Z,19.08
2022-09-28T23:03:42.714Z,14.10
2022-09-28T23:06:11.193Z,13.45
2022-09-28T23:08:38.529Z,19.77
2022-09-28T23:11:05.831Z,15.40
2022-09-28T23:13:32.493Z,21.27
2022-09-28T23:16:05.011Z,16.38
2022-09-28T23:18:34.589Z,24.00
2022-09-28T23:21:06.670Z,12.43
2022-09-28T23:23:34.311Z,18.55
2022-09-28T23:26:09.715Z,13.63
2022-09-28T23:28:36.349Z,15.40
2022-09-28T23:31:12.004Z,17.63
2022-09-28T23:33:38.666Z,20.58
2022-09-28T23:36:05.824Z,23.48
2022-09-28T23:38:32.669Z,20.17
2022-09-28T23:40:59.669Z,16.80
2022-09-28T23:43:26.400Z,15.90
2022-09-28T23:45:53.026Z,13.45
2022-09-28T23:48:19.663Z,12.60
2022-09-28T23:50:46.607Z,9.82
2022-09-28T23:53:14.388Z,12.50
2022-09-28T23:55:42.490Z,12.43
2022-09-28T23:58:10.188Z,10.30
